Time,TemperatureF,DewpointF,PressureIn,WindDirection,WindDirectionDegrees,WindSpeedMPH,WindSpeedGustMPH,Humidity,HourlyPrecipIn,Conditions,Clouds,dailyrainin,SolarRadiationWatts/m^2,SoftwareType,DateUTC
2014-04-16 00:02:00,34.2,23.7,30.27,West,265,0.0,0.0,65,0.00,CLR,,0.00,0.0,WeatherDisplay:10.37,2014-04-15 22:02:00,
2014-04-16 00:07:00,33.9,23.7,30.27,West,265,0.0,0.0,66,0.00,CLR,,0.00,0.0,WeatherDisplay:10.37,2014-04-15 22:07:00,
2014-04-16 00:12:00,33.6,23.4,30.27,West,265,0.0,0.0,66,0.00,CLR,,0.00,0.0,WeatherDisplay:10.37,2014-04-15 22:12:00,
2014-04-16 00:17:00,33.5,23.4,30.27,West,265,0.0,0.0,66,0.00,CLR,,0.00,0.0,WeatherDisplay:10.37,2014-04-15 22:17:00,
2014-04-16 00:22:00,33.2,23.1,30.27,West,265,0.0,0.0,66,0.00,CLR,,0.00,0.0,WeatherDisplay:10.37,2014-04-15 22:22:00,
2014-04-16 00:27:00,33.0,22.9,30.27,West,265,0.0,0.0,66,0.00,CLR,,0.00,0.0,WeatherDisplay:10.37,2014-04-15 22:27:00,
2014-04-16 00:32:00,32.8,22.7,30.28,West,265,0.0,0.0,66,0.00,CLR,,0.00,0.0,WeatherDisplay:10.37,2014-04-15 22:32:00,
2014-04-16 00:37:00,32.5,22.8,30.28,West,265,0.0,0.0,67,0.00,CLR,,0.00,0.0,WeatherDisplay:10.37,2014-04-15 22:37:00,
2014-04-16 00:42:00,32.3,22.6,30.28,West,265,0.0,0.0,67,0.00,CLR,,0.00,0.0,WeatherDisplay:10.37,2014-04-15 22:42:00,
2014-04-16 00:47:00,32.2,22.8,30.28,West,265,0.0,0.0,68,0.00,CLR,,0.00,0.0,WeatherDisplay:10.37,2014-04-15 22:47:00,
2014-04-16 00:52:00,32.0,23.0,30.28,West,265,0.0,0.0,69,0.00,CLR,,0.00,0.0,WeatherDisplay:10.37,2014-04-15 22:52:00,
2014-04-16 00:57:00,31.7,22.7,30.28,West,265,0.0,0.0,69,0.00,CLR,,0.00,0.0,WeatherDisplay:10.37,2014-04-15 22:57:00,
2014-04-16 01:02:00,31.7,23.0,30.28,West,265,1.1,0.0,70,0.00,CLR,,0.00,0.0,WeatherDisplay:10.37,2014-04-15 23:02:00,
2014-04-16 01:07:00,31.6,22.9,30.28,West,265,0.0,0.0,70,0.00,CLR,,0.00,0.0,WeatherDisplay:10.37,2014-04-15 23:07:00,
2014-04-16 01:12:00,31.6,23.3,30.28,West,265,0.0,0.0,71,0.00,CLR,,0.00,0.0,WeatherDisplay:10.37,2014-04-15 23:12:00,
2014-04-16 01:17:00,31.6,23.3,30.28,West,265,0.0,0.0,71,0.00,CLR,,0.00,0.0,WeatherDisplay:10.37,2014-04-15 23:17:00,
2014-04-16 01:22:00,31.6,23.6,30.28,West,265,0.0,0.0,72,0.00,CLR,,0.00,0.0,WeatherDisplay:10.37,2014-04-15 23:22:00,
2014-04-16 01:27:00,31.4,23.4,30.28,West,265,0.0,0.0,72,0.00,CLR,,0.00,0.0,WeatherDisplay:10.37,2014-04-15 23:27:00,
2014-04-16 01:32:00,31.3,23.3,30.28,West,265,0.0,0.0,72,0.00,CLR,,0.00,0.0,WeatherDisplay:10.37,2014-04-15 23:32:00,
2014-04-16 01:37:00,31.0,23.0,30.28,West,265,0.0,0.0,72,0.00,CLR,,0.00,0.0,WeatherDisplay:10.37,2014-04-15 23:37:00,
2014-04-16 01:42:00,30.8,23.2,30.28,West,265,0.0,0.0,73,0.00,CLR,,0.00,0.0,WeatherDisplay:10.37,2014-04-15 23:42:00,
2014-04-16 01:47:00,30.5,22.9,30.28,West,265,0.0,0.0,73,0.00,CLR,,0.00,0.0,WeatherDisplay:10.37,2014-04-15 23:47:00,
2014-04-16 01:52:00,30.4,22.8,30.28,West,265,0.0,0.0,73,0.00,CLR,,0.00,0.0,WeatherDisplay:10.37,2014-04-15 23:52:00,
2014-04-16 01:57:00,30.2,22.9,30.28,West,265,0.0,0.0,74,0.00,CLR,,0.00,0.0,WeatherDisplay:10.37,2014-04-15 23:57:00,
2014-04-16 02:02:00,30.1,22.8,30.28,West,265,0.0,0.0,74,0.00,CLR,,0.00,0.0,WeatherDisplay:10.37,2014-04-16 00:02:00,
2014-04-16 02:07:00,29.9,22.6,30.28,West,265,0.0,0.0,74,0.00,CLR,,0.00,0.0,WeatherDisplay:10.37,2014-04-16 00:07:00,
2014-04-16 02:12:00,29.8,22.5,30.28,West,265,0.0,0.0,74,0.00,CLR,,0.00,0.0,WeatherDisplay:10.37,2014-04-16 00:12:00,
2014-04-16 02:17:00,29.8,22.8,30.28,West,265,0.0,0.0,75,0.00,CLR,,0.00,0.0,WeatherDisplay:10.37,2014-04-16 00:17:00,
2014-04-16 02:22:00,29.6,22.6,30.28,West,265,0.0,0.0,75,0.00,CLR,,0.00,0.0,WeatherDisplay:10.37,2014-04-16 00:22:00,
2014-04-16 02:27:00,29.6,22.6,30.28,West,265,1.1,0.0,75,0.00,CLR,,0.00,0.0,WeatherDisplay:10.37,2014-04-16 00:27:00,
2014-04-16 02:32:00,29.6,22.6,30.28,West,265,0.0,0.0,75,0.00,CLR,,0.00,0.0,WeatherDisplay:10.37,2014-04-16 00:32:00,
2014-04-16 02:37:00,29.5,22.6,30.28,West,265,0.0,0.0,75,0.00,CLR,,0.00,0.0,WeatherDisplay:10.37,2014-04-16 00:37:00,
2014-04-16 02:42:00,29.5,22.9,30.28,West,265,0.0,0.0,76,0.00,CLR,,0.00,0.0,WeatherDisplay:10.37,2014-04-16 00:42:00,
2014-04-16 02:47:00,29.5,22.9,30.28,West,265,0.0,0.0,76,0.00,CLR,,0.00,0.0,WeatherDisplay:10.37,2014-04-16 00:47:00,
2014-04-16 02:52:00,29.5,22.9,30.28,West,265,0.0,0.0,76,0.00,CLR,,0.00,0.0,WeatherDisplay:10.37,2014-04-16 00:52:00,
2014-04-16 02:57:00,29.5,22.9,30.28,West,265,0.0,0.0,76,0.00,CLR,,0.00,0.0,WeatherDisplay:10.37,2014-04-16 00:57:00,
2014-04-16 03:02:00,29.4,22.8,30.28,West,265,0.0,0.0,76,0.00,CLR,,0.00,0.0,WeatherDisplay:10.37,2014-04-16 01:02:00,
2014-04-16 03:07:00,29.4,22.8,30.28,West,265,0.0,0.0,76,0.00,CLR,,0.00,0.0,WeatherDisplay:10.37,2014-04-16 01:07:00,
2014-04-16 03:12:00,29.4,22.8,30.28,West,265,0.0,0.0,76,0.00,CLR,,0.00,0.0,WeatherDisplay:10.37,2014-04-16 01:12:00,
2014-04-16 03:17:00,29.4,22.8,30.28,West,265,0.0,0.0,76,0.00,CLR,,0.00,0.0,WeatherDisplay:10.37,2014-04-16 01:17:00,
2014-04-16 03:22:00,29.2,22.6,30.28,West,265,0.0,0.0,76,0.00,CLR,,0.00,0.0,WeatherDisplay:10.37,2014-04-16 01:22:00,
2014-04-16 03:27:00,29.2,22.6,30.28,West,265,0.0,0.0,76,0.00,CLR,,0.00,0.0,WeatherDisplay:10.37,2014-04-16 01:27:00,
2014-04-16 03:32:00,29.2,22.9,30.28,West,265,0.0,0.0,77,0.00,CLR,,0.00,0.0,WeatherDisplay:10.37,2014-04-16 01:32:00,
2014-04-16 03:37:00,29.2,22.9,30.28,West,265,0.0,0.0,77,0.00,CLR,,0.00,0.0,WeatherDisplay:10.37,2014-04-16 01:37:00,
2014-04-16 03:42:00,29.1,22.8,30.28,West,265,0.0,0.0,77,0.00,CLR,,0.00,0.0,WeatherDisplay:10.37,2014-04-16 01:42:00,
2014-04-16 03:47:00,29.1,22.8,30.28,West,265,0.0,0.0,77,0.00,CLR,,0.00,0.0,WeatherDisplay:10.37,2014-04-16 01:47:00,
2014-04-16 03:52:00,29.2,22.9,30.28,West,265,0.0,0.0,77,0.00,CLR,,0.00,0.0,WeatherDisplay:10.37,2014-04-16 01:52:00,
2014-04-16 03:57:00,29.4,23.1,30.28,West,265,0.0,0.0,77,0.00,CLR,,0.00,0.0,WeatherDisplay:10.37,2014-04-16 01:57:00,
2014-04-16 04:02:00,29.4,23.1,30.27,West,265,0.0,0.0,77,0.00,CLR,,0.00,0.0,WeatherDisplay:10.37,2014-04-16 02:02:00,
2014-04-16 04:07:00,29.5,23.2,30.27,West,265,0.0,0.0,77,0.00,CLR,,0.00,0.0,WeatherDisplay:10.37,2014-04-16 02:07:00,
2014-04-16 04:12:00,29.6,23.3,30.27,West,265,0.0,0.0,77,0.00,CLR,,0.00,0.0,WeatherDisplay:10.37,2014-04-16 02:12:00,
2014-04-16 04:17:00,29.6,23.3,30.27,West,265,0.0,0.0,77,0.00,CLR,,0.00,0.0,WeatherDisplay:10.37,2014-04-16 02:17:00,
2014-04-16 04:22:00,29.6,23.3,30.27,West,265,0.0,0.0,77,0.00,CLR,,0.00,0.0,WeatherDisplay:10.37,2014-04-16 02:22:00,
2014-04-16 04:27:00,29.6,23.3,30.27,West,265,1.1,0.0,77,0.00,CLR,,0.00,0.0,WeatherDisplay:10.37,2014-04-16 02:27:00,
2014-04-16 04:32:00,29.5,23.2,30.27,West,265,0.0,0.0,77,0.00,CLR,,0.00,0.0,WeatherDisplay:10.37,2014-04-16 02:32:00,
2014-04-16 04:37:00,29.5,23.2,30.27,West,265,0.0,0.0,77,0.00,CLR,,0.00,0.0,WeatherDisplay:10.37,2014-04-16 02:37:00,
2014-04-16 04:42:00,29.5,23.2,30.27,West,265,0.0,0.0,77,0.00,CLR,,0.00,0.0,WeatherDisplay:10.37,2014-04-16 02:42:00,
2014-04-16 04:47:00,29.5,23.2,30.27,West,265,0.0,0.0,77,0.00,CLR,,0.00,0.0,WeatherDisplay:10.37,2014-04-16 02:47:00,
2014-04-16 04:52:00,29.5,23.2,30.27,West,265,0.0,0.0,77,0.00,CLR,,0.00,0.0,WeatherDisplay:10.37,2014-04-16 02:52:00,
2014-04-16 04:57:00,29.6,23.3,30.27,West,265,1.1,0.0,77,0.00,CLR,,0.00,0.0,WeatherDisplay:10.37,2014-04-16 02:57:00,
2014-04-16 05:02:00,29.6,23.3,30.27,West,265,0.0,0.0,77,0.00,CLR,,0.00,0.0,WeatherDisplay:10.37,2014-04-16 03:02:00,
2014-04-16 05:07:00,29.6,23.3,30.27,West,265,0.0,0.0,77,0.00,CLR,,0.00,0.0,WeatherDisplay:10.37,2014-04-16 03:07:00,
2014-04-16 05:12:00,29.6,23.3,30.27,West,265,0.0,0.0,77,0.00,CLR,,0.00,0.0,WeatherDisplay:10.37,2014-04-16 03:12:00,
2014-04-16 05:17:00,29.5,23.2,30.27,West,265,0.0,0.0,77,0.00,CLR,,0.00,0.0,WeatherDisplay:10.37,2014-04-16 03:17:00,
2014-04-16 05:22:00,29.5,23.2,30.27,West,265,0.0,0.0,77,0.00,CLR,,0.00,0.0,WeatherDisplay:10.37,2014-04-16 03:22:00,
2014-04-16 05:27:00,29.4,23.1,30.27,West,265,0.0,0.0,77,0.00,OVC,,0.00,0.0,WeatherDisplay:10.37,2014-04-16 03:27:00,
2014-04-16 05:32:00,29.2,22.9,30.26,West,265,0.0,0.0,77,0.00,OVC,,0.00,0.0,WeatherDisplay:10.37,2014-04-16 03:32:00,
2014-04-16 05:37:00,29.1,22.8,30.26,West,265,0.0,0.0,77,0.00,OVC,,0.00,0.0,WeatherDisplay:10.37,2014-04-16 03:37:00,
2014-04-16 05:42:00,29.1,23.1,30.26,West,265,0.0,0.0,78,0.00,OVC,,0.00,0.0,WeatherDisplay:10.37,2014-04-16 03:42:00,
2014-04-16 05:47:00,28.9,22.9,30.26,West,265,0.0,0.0,78,0.00,OVC,,0.00,0.0,WeatherDisplay:10.37,2014-04-16 03:47:00,
2014-04-16 05:52:00,28.8,22.8,30.26,West,265,0.0,0.0,78,0.00,OVC,,0.00,0.0,WeatherDisplay:10.37,2014-04-16 03:52:00,
2014-04-16 05:57:00,28.6,22.6,30.26,West,265,0.0,0.0,78,0.00,OVC,,0.00,5.0,WeatherDisplay:10.37,2014-04-16 03:57:00,
2014-04-16 06:01:00,28.5,22.5,30.26,West,265,0.0,0.0,78,0.00,OVC,,0.00,7.0,WeatherDisplay:10.37,2014-04-16 04:01:00,
2014-04-16 06:02:00,28.5,22.5,30.26,West,265,0.0,0.0,78,0.00,OVC,,0.00,7.0,WeatherDisplay:10.37,2014-04-16 04:02:00,
2014-04-16 06:03:00,28.5,22.5,30.26,West,265,0.0,0.0,78,0.00,OVC,,0.00,7.0,WeatherDisplay:10.37,2014-04-16 04:03:00,
2014-04-16 06:04:00,28.5,22.5,30.26,West,265,0.0,0.0,78,0.00,OVC,,0.00,9.0,WeatherDisplay:10.37,2014-04-16 04:04:00,
2014-04-16 06:09:00,28.3,22.3,30.26,West,265,0.0,0.0,78,0.00,OVC,,0.00,12.0,WeatherDisplay:10.37,2014-04-16 04:09:00,
2014-04-16 06:14:00,28.3,22.6,30.26,West,265,0.0,0.0,79,0.00,OVC,,0.00,14.0,WeatherDisplay:10.37,2014-04-16 04:14:00,
2014-04-16 06:19:00,28.3,22.6,30.26,West,265,0.0,0.0,79,0.00,OVC,,0.00,19.0,WeatherDisplay:10.37,2014-04-16 04:19:00,
2014-04-16 06:24:00,28.5,22.8,30.26,West,265,0.0,0.0,79,0.00,OVC,,0.00,21.0,WeatherDisplay:10.37,2014-04-16 04:24:00,
2014-04-16 06:29:00,28.5,22.8,30.26,West,265,1.1,0.0,79,0.00,OVC,,0.00,23.0,WeatherDisplay:10.37,2014-04-16 04:29:00,
2014-04-16 06:34:00,28.6,22.9,30.26,West,265,0.0,0.0,79,0.00,OVC,,0.00,35.0,WeatherDisplay:10.37,2014-04-16 04:34:00,
2014-04-16 06:39:00,28.8,23.4,30.26,West,265,0.0,0.0,80,0.00,CLR,,0.00,37.0,WeatherDisplay:10.37,2014-04-16 04:39:00,
2014-04-16 06:44:00,29.1,23.7,30.26,West,265,0.0,0.0,80,0.00,CLR,,0.00,47.0,WeatherDisplay:10.37,2014-04-16 04:44:00,
2014-04-16 06:49:00,29.4,24.0,30.26,West,265,0.0,0.0,80,0.00,CLR,,0.00,60.0,WeatherDisplay:10.37,2014-04-16 04:49:00,
2014-04-16 06:54:00,29.9,24.5,30.26,West,265,0.0,0.0,80,0.00,CLR,,0.00,67.0,WeatherDisplay:10.37,2014-04-16 04:54:00,
2014-04-16 06:59:00,30.4,25.0,30.26,West,265,0.0,0.0,80,0.00,CLR,,0.00,42.0,WeatherDisplay:10.37,2014-04-16 04:59:00,
2014-04-16 07:04:00,30.7,25.0,30.25,West,265,0.0,0.0,79,0.00,CLR,,0.00,40.0,WeatherDisplay:10.37,2014-04-16 05:04:00,
2014-04-16 07:09:00,30.8,25.1,30.25,West,265,0.0,0.0,79,0.00,CLR,,0.00,37.0,WeatherDisplay:10.37,2014-04-16 05:09:00,
2014-04-16 07:14:00,31.0,25.2,30.25,West,265,0.0,0.0,79,0.00,FEW,,0.00,39.0,WeatherDisplay:10.37,2014-04-16 05:14:00,
2014-04-16 07:19:00,31.1,25.0,30.25,West,265,0.0,0.0,78,0.00,FEW,,0.00,37.0,WeatherDisplay:10.37,2014-04-16 05:19:00,
2014-04-16 07:24:00,31.3,25.2,30.25,West,265,0.0,0.0,78,0.00,SCT,,0.00,40.0,WeatherDisplay:10.37,2014-04-16 05:24:00,
2014-04-16 07:29:00,31.3,25.2,30.25,West,265,1.1,1.1,78,0.00,SCT,,0.00,56.0,WeatherDisplay:10.37,2014-04-16 05:29:00,
2014-04-16 07:34:00,31.4,25.3,30.25,West,265,1.1,0.0,78,0.00,SCT,,0.00,72.0,WeatherDisplay:10.37,2014-04-16 05:34:00,
2014-04-16 07:39:00,31.6,25.5,30.25,NNW,348,1.1,0.0,78,0.00,FEW,,0.00,86.0,WeatherDisplay:10.37,2014-04-16 05:39:00,
2014-04-16 07:44:00,31.9,25.8,30.25,NNW,348,1.1,1.1,78,0.00,CLR,,0.00,95.0,WeatherDisplay:10.37,2014-04-16 05:44:00,
2014-04-16 07:49:00,32.0,25.9,30.25,NNW,348,0.0,0.0,78,0.00,CLR,,0.00,105.0,WeatherDisplay:10.37,2014-04-16 05:49:00,
2014-04-16 07:54:00,32.5,26.4,30.25,NNW,348,0.0,0.0,78,0.00,CLR,,0.00,105.0,WeatherDisplay:10.37,2014-04-16 05:54:00,
2014-04-16 07:59:00,32.8,26.4,30.25,NNW,348,1.1,1.1,77,0.00,CLR,,0.00,118.0,WeatherDisplay:10.37,2014-04-16 05:59:00,
2014-04-16 08:04:00,33.2,26.8,30.24,NNW,348,0.0,0.0,77,0.00,CLR,,0.00,113.0,WeatherDisplay:10.37,2014-04-16 06:04:00,
2014-04-16 08:09:00,33.6,26.8,30.24,NNW,348,1.1,0.0,76,0.00,FEW,,0.00,118.0,WeatherDisplay:10.37,2014-04-16 06:09:00,
2014-04-16 08:14:00,34.1,27.3,30.24,NNW,348,0.0,0.0,76,0.00,FEW,,0.00,91.0,WeatherDisplay:10.37,2014-04-16 06:14:00,
2014-04-16 08:19:00,34.5,27.4,30.24,NNW,348,0.0,0.0,75,0.00,SCT,,0.00,95.0,WeatherDisplay:10.37,2014-04-16 06:19:00,
2014-04-16 08:24:00,34.8,27.7,30.24,NNW,348,0.0,0.0,75,0.00,SCT,,0.00,116.0,WeatherDisplay:10.37,2014-04-16 06:24:00,
2014-04-16 08:29:00,35.1,28.0,30.24,NNW,348,0.0,0.0,75,0.00,SCT,,0.00,142.0,WeatherDisplay:10.37,2014-04-16 06:29:00,
2014-04-16 08:34:00,35.6,28.5,30.24,NNW,348,0.0,0.0,75,0.00,FEW,,0.00,192.0,WeatherDisplay:10.37,2014-04-16 06:34:00,
2014-04-16 08:39:00,37.1,29.6,30.24,NNW,348,0.0,0.0,74,0.00,CLR,,0.00,248.0,WeatherDisplay:10.37,2014-04-16 06:39:00,
2014-04-16 08:44:00,37.9,30.0,30.24,South,178,1.1,1.1,73,0.00,CLR,,0.00,269.0,WeatherDisplay:10.37,2014-04-16 06:44:00,
2014-04-16 08:49:00,38.7,30.8,30.23,SE,138,1.1,1.1,73,0.00,CLR,,0.00,195.0,WeatherDisplay:10.37,2014-04-16 06:49:00,
2014-04-16 08:54:00,39.0,30.7,30.23,South,188,2.3,2.3,72,0.00,CLR,,0.00,181.0,WeatherDisplay:10.37,2014-04-16 06:54:00,
2014-04-16 08:59:00,39.0,31.1,30.23,South,177,2.3,2.3,73,0.00,FEW,,0.00,211.0,WeatherDisplay:10.37,2014-04-16 06:59:00,
2014-04-16 09:04:00,39.7,31.8,30.23,South,172,0.0,0.0,73,0.00,FEW,,0.00,214.0,WeatherDisplay:10.37,2014-04-16 07:04:00,
2014-04-16 09:09:00,40.2,31.5,30.23,SSE,165,4.0,4.0,71,0.00,FEW,,0.00,213.0,WeatherDisplay:10.37,2014-04-16 07:09:00,
2014-04-16 09:14:00,40.3,31.3,30.23,SSE,148,1.1,1.1,70,0.00,FEW,,0.00,220.0,WeatherDisplay:10.37,2014-04-16 07:14:00,
2014-04-16 09:19:00,40.4,31.4,30.23,South,185,3.5,3.5,70,0.00,FEW,,0.00,186.0,WeatherDisplay:10.37,2014-04-16 07:19:00,
2014-04-16 09:24:00,40.7,31.7,30.23,SSE,156,1.1,1.1,70,0.00,SCT,,0.00,223.0,WeatherDisplay:10.37,2014-04-16 07:24:00,
2014-04-16 09:29:00,41.3,31.9,30.23,SE,144,3.0,3.0,69,0.00,SCT,,0.00,250.0,WeatherDisplay:10.37,2014-04-16 07:29:00,
2014-04-16 09:34:00,41.3,31.5,30.23,SE,141,2.0,2.0,68,0.00,FEW,,0.00,229.0,WeatherDisplay:10.37,2014-04-16 07:34:00,
2014-04-16 09:39:00,41.7,31.5,30.23,East,81,2.3,2.3,67,0.00,FEW,,0.00,218.0,WeatherDisplay:10.37,2014-04-16 07:39:00,
2014-04-16 09:44:00,41.7,31.5,30.23,South,170,1.1,1.1,67,0.00,SCT,,0.00,220.0,WeatherDisplay:10.37,2014-04-16 07:44:00,
2014-04-16 09:49:00,42.4,31.8,30.22,SSE,154,1.1,0.0,66,0.00,SCT,,0.00,239.0,WeatherDisplay:10.37,2014-04-16 07:49:00,
2014-04-16 09:54:00,43.0,31.6,30.22,East,80,1.1,1.1,64,0.00,SCT,,0.00,243.0,WeatherDisplay:10.37,2014-04-16 07:54:00,
2014-04-16 09:59:00,43.7,31.5,30.22,North,360,2.0,2.0,62,0.00,SCT,,0.00,248.0,WeatherDisplay:10.37,2014-04-16 07:59:00,
2014-04-16 10:04:00,44.2,32.0,30.21,North,360,3.5,3.5,62,0.00,SCT,,0.00,276.0,WeatherDisplay:10.37,2014-04-16 08:04:00,
2014-04-16 10:09:00,44.6,32.0,30.21,NE,46,3.5,3.5,61,0.00,SCT,,0.00,288.0,WeatherDisplay:10.37,2014-04-16 08:09:00,
2014-04-16 10:14:00,44.9,29.2,30.21,NE,48,1.1,1.1,54,0.00,SCT,,0.00,239.0,WeatherDisplay:10.37,2014-04-16 08:14:00,
2014-04-16 10:19:00,45.5,29.8,30.21,North,360,0.0,0.0,54,0.00,SCT,,0.00,237.0,WeatherDisplay:10.37,2014-04-16 08:19:00,
2014-04-16 10:24:00,45.6,28.0,30.21,SSE,164,4.6,4.6,50,0.00,SCT,,0.00,218.0,WeatherDisplay:10.37,2014-04-16 08:24:00,
2014-04-16 10:29:00,45.9,27.3,30.21,South,170,5.8,5.8,48,0.00,SCT,,0.00,225.0,WeatherDisplay:10.37,2014-04-16 08:29:00,
2014-04-16 10:34:00,46.3,26.6,30.20,South,170,0.0,0.0,46,0.00,SCT,,0.00,225.0,WeatherDisplay:10.37,2014-04-16 08:34:00,
2014-04-16 10:39:00,46.5,26.8,30.20,WNW,302,3.5,3.5,46,0.00,SCT,,0.00,190.0,WeatherDisplay:10.37,2014-04-16 08:39:00,
2014-04-16 10:44:00,46.8,27.1,30.20,WNW,302,0.0,0.0,46,0.00,SCT,,0.00,183.0,WeatherDisplay:10.37,2014-04-16 08:44:00,
2014-04-16 10:49:00,46.8,27.1,30.20,West,274,3.5,3.5,46,0.00,SCT,,0.00,195.0,WeatherDisplay:10.37,2014-04-16 08:49:00,
2014-04-16 10:54:00,46.8,27.6,30.20,WSW,238,5.0,5.0,47,0.00,SCT,,0.00,250.0,WeatherDisplay:10.37,2014-04-16 08:54:00,
2014-04-16 10:59:00,47.2,27.5,30.20,NW,317,1.1,1.1,46,0.00,SCT,,0.00,276.0,WeatherDisplay:10.37,2014-04-16 08:59:00,
2014-04-16 11:04:00,47.7,28.4,30.19,West,263,3.0,3.0,47,0.00,SCT,,0.00,320.0,WeatherDisplay:10.37,2014-04-16 09:04:00,
2014-04-16 11:09:00,47.8,27.5,30.19,South,182,4.6,4.6,45,0.00,SCT,,0.00,318.0,WeatherDisplay:10.37,2014-04-16 09:09:00,
2014-04-16 11:14:00,47.7,27.9,30.19,WSW,242,4.6,4.6,46,0.00,SCT,,0.00,438.0,WeatherDisplay:10.37,2014-04-16 09:14:00,
2014-04-16 11:19:00,49.5,29.6,30.19,WNW,289,2.3,2.3,46,0.00,FEW,,0.00,315.0,WeatherDisplay:10.37,2014-04-16 09:19:00,
2014-04-16 11:24:00,48.9,27.9,30.19,SSW,196,9.0,9.0,44,0.00,FEW,,0.00,441.0,WeatherDisplay:10.37,2014-04-16 09:24:00,
2014-04-16 11:29:00,49.0,28.0,30.19,NW,309,3.5,3.5,44,0.00,FEW,,0.00,336.0,WeatherDisplay:10.37,2014-04-16 09:29:00,
2014-04-16 11:34:00,49.7,28.1,30.19,WNW,286,4.6,4.6,43,0.00,SCT,,0.00,397.0,WeatherDisplay:10.37,2014-04-16 09:34:00,
2014-04-16 11:39:00,49.7,28.1,30.19,WNW,303,3.5,3.5,43,0.00,SCT,,0.00,406.0,WeatherDisplay:10.37,2014-04-16 09:39:00,
2014-04-16 11:44:00,50.3,28.1,30.19,SSW,213,5.8,5.8,42,0.00,SCT,,0.00,325.0,WeatherDisplay:10.37,2014-04-16 09:44:00,
2014-04-16 11:49:00,50.2,27.4,30.19,SW,219,3.5,3.5,41,0.00,FEW,,0.00,381.0,WeatherDisplay:10.37,2014-04-16 09:49:00,
2014-04-16 11:54:00,50.0,27.2,30.19,WSW,257,2.3,0.0,41,0.00,SCT,,0.00,299.0,WeatherDisplay:10.37,2014-04-16 09:54:00,
2014-04-16 11:59:00,49.9,26.5,30.19,South,190,5.8,5.8,40,0.00,SCT,,0.00,323.0,WeatherDisplay:10.37,2014-04-16 09:59:00,
2014-04-16 12:04:00,49.9,26.5,30.18,WSW,238,3.5,3.5,40,0.00,SCT,,0.00,306.0,WeatherDisplay:10.37,2014-04-16 10:04:00,
2014-04-16 12:09:00,50.3,26.3,30.18,WNW,292,1.1,1.1,39,0.00,SCT,,0.00,399.0,WeatherDisplay:10.37,2014-04-16 10:09:00,
2014-04-16 12:14:00,50.6,25.9,30.18,SW,221,2.3,2.3,38,0.00,SCT,,0.00,369.0,WeatherDisplay:10.37,2014-04-16 10:14:00,
2014-04-16 12:19:00,51.1,25.0,30.18,WSW,245,2.3,2.3,36,0.00,SCT,,0.00,459.0,WeatherDisplay:10.37,2014-04-16 10:19:00,
2014-04-16 12:24:00,52.4,25.5,30.18,SW,232,2.3,2.3,35,0.00,SCT,,0.00,504.0,WeatherDisplay:10.37,2014-04-16 10:24:00,
2014-04-16 12:29:00,52.4,24.8,30.18,WNW,288,3.5,3.5,34,0.00,FEW,,0.00,536.0,WeatherDisplay:10.37,2014-04-16 10:29:00,
2014-04-16 12:34:00,52.4,23.4,30.18,WNW,283,3.5,3.5,32,0.00,FEW,,0.00,526.0,WeatherDisplay:10.37,2014-04-16 10:34:00,
2014-04-16 12:39:00,53.0,24.6,30.18,North,360,5.0,5.0,33,0.00,FEW,,0.00,446.0,WeatherDisplay:10.37,2014-04-16 10:39:00,
2014-04-16 12:44:00,53.2,24.1,30.18,South,182,6.0,6.0,32,0.00,FEW,,0.00,598.0,WeatherDisplay:10.37,2014-04-16 10:44:00,
2014-04-16 12:49:00,53.6,22.9,30.17,SW,225,3.5,3.5,30,0.00,CLR,,0.00,636.0,WeatherDisplay:10.37,2014-04-16 10:49:00,
2014-04-16 12:54:00,54.0,24.0,30.17,SSW,211,10.4,10.4,31,0.00,CLR,,0.00,515.0,WeatherDisplay:10.37,2014-04-16 10:54:00,
2014-04-16 12:59:00,53.4,23.5,30.17,West,277,5.8,5.8,31,0.00,FEW,,0.00,497.0,WeatherDisplay:10.37,2014-04-16 10:59:00,
2014-04-16 13:04:00,53.0,23.9,30.17,NW,305,4.6,4.6,32,0.00,FEW,,0.00,388.0,WeatherDisplay:10.37,2014-04-16 11:04:00,
2014-04-16 13:09:00,53.0,23.9,30.17,SSW,207,5.8,5.8,32,0.00,SCT,,0.00,345.0,WeatherDisplay:10.37,2014-04-16 11:09:00,
2014-04-16 13:14:00,52.4,24.1,30.17,South,180,7.0,7.0,33,0.00,SCT,,0.00,369.0,WeatherDisplay:10.37,2014-04-16 11:14:00,
2014-04-16 13:19:00,52.4,24.1,30.16,SW,226,4.0,4.0,33,0.00,SCT,,0.00,408.0,WeatherDisplay:10.37,2014-04-16 11:19:00,
2014-04-16 13:24:00,53.4,24.2,30.16,West,259,3.5,3.5,32,0.00,SCT,,0.00,547.0,WeatherDisplay:10.37,2014-04-16 11:24:00,
2014-04-16 13:29:00,53.9,23.9,30.16,SSW,202,4.6,4.6,31,0.00,FEW,,0.00,394.0,WeatherDisplay:10.37,2014-04-16 11:29:00,
2014-04-16 13:34:00,53.3,24.9,30.16,South,191,11.5,11.5,33,0.00,SCT,,0.00,327.0,WeatherDisplay:10.37,2014-04-16 11:34:00,
2014-04-16 13:39:00,53.2,24.8,30.16,West,265,1.1,1.2,33,0.00,SCT,,0.00,334.0,WeatherDisplay:10.37,2014-04-16 11:39:00,
2014-04-16 13:44:00,52.9,24.5,30.16,South,178,5.8,5.8,33,0.00,SCT,,0.00,348.0,WeatherDisplay:10.37,2014-04-16 11:44:00,
2014-04-16 13:49:00,53.0,24.6,30.16,SW,229,7.0,7.0,33,0.00,SCT,,0.00,504.0,WeatherDisplay:10.37,2014-04-16 11:49:00,